createdAt,value
2019-03-27T17:30:53.867Z,4.47
2019-03-27T17:33:23.879Z,4.47
2019-03-27T17:35:55.680Z,4.23
2019-03-27T17:38:27.673Z,4.97
2019-03-27T17:40:57.713Z,4.33
2019-03-27T17:43:27.700Z,4.80
2019-03-27T17:45:58.523Z,5.20
2019-03-27T17:48:28.673Z,5.70
2019-03-27T17:51:01.069Z,5.10
2019-03-27T17:53:32.273Z,4.67
2019-03-27T17:56:03.421Z,5.13
2019-03-27T17:58:33.652Z,5.37
2019-03-27T18:01:05.441Z,5.63
2019-03-27T18:03:35.366Z,4.87
2019-03-27T18:06:06.671Z,5.80
2019-03-27T18:08:37.743Z,7.30
2019-03-27T18:11:09.098Z,6.60
2019-03-27T18:13:39.107Z,5.50
2019-03-27T18:16:09.372Z,5.90
2019-03-27T18:18:39.619Z,5.33
2019-03-27T18:21:10.151Z,5.43
2019-03-27T18:23:46.319Z,6.50
2019-03-27T18:26:12.812Z,5.80
2019-03-27T18:28:43.040Z,4.83
2019-03-27T18:31:14.501Z,5.37
2019-03-27T18:33:46.610Z,4.77
2019-03-27T18:36:18.333Z,4.87
2019-03-27T18:38:49.099Z,6.00
2019-03-27T18:41:19.762Z,5.63
2019-03-27T18:43:50.169Z,7.07
2019-03-27T18:46:21.445Z,5.67
2019-03-27T18:48:52.429Z,6.10
2019-03-27T18:51:22.532Z,5.13
2019-03-27T18:53:59.426Z,5.40
2019-03-27T18:56:26.218Z,6.07
2019-03-27T18:58:56.420Z,5.87
2019-03-27T19:01:27.082Z,5.67
2019-03-27T19:03:57.346Z,5.70
2019-03-27T19:06:27.257Z,6.60
2019-03-27T19:08:57.335Z,5.27
2019-03-27T19:11:27.430Z,6.27
2019-03-27T19:13:57.349Z,5.53
2019-03-27T19:16:28.820Z,5.87
2019-03-27T19:18:58.798Z,5.43
2019-03-27T19:21:28.789Z,5.20
2019-03-27T19:24:12.312Z,6.77
2019-03-27T19:26:30.329Z,5.73
2019-03-27T19:29:00.254Z,7.10
2019-03-27T19:31:30.232Z,6.03
2019-03-27T19:34:00.260Z,5.90
2019-03-27T19:36:30.337Z,5.77
2019-03-27T19:39:01.522Z,4.97
2019-03-27T19:41:33.089Z,5.43
2019-03-27T19:44:03.172Z,5.50
2019-03-27T19:46:34.201Z,6.20
2019-03-27T19:49:04.382Z,13.40
2019-03-27T19:51:34.306Z,10.37
2019-03-27T19:54:04.410Z,7.90
2019-03-27T19:56:34.412Z,5.90
2019-03-27T19:59:04.397Z,5.47
2019-03-27T20:01:35.416Z,5.77
2019-03-27T20:04:05.591Z,6.20
2019-03-27T20:06:35.509Z,5.80
2019-03-27T20:09:07.500Z,5.37
2019-03-27T20:11:37.543Z,5.47
2019-03-27T20:14:08.691Z,5.80
2019-03-27T20:16:38.602Z,5.87
2019-03-27T20:19:08.581Z,6.80
2019-03-27T20:21:38.494Z,6.33
2019-03-27T20:24:09.191Z,5.63
2019-03-27T20:26:39.870Z,6.60
2019-03-27T20:29:10.650Z,6.23
2019-03-27T20:31:41.269Z,7.50
2019-03-27T20:34:11.292Z,7.10
2019-03-27T20:36:41.368Z,7.33
2019-03-27T20:39:11.283Z,7.93
2019-03-27T20:41:41.476Z,6.90
2019-03-27T20:44:11.402Z,7.87
2019-03-27T20:47:00.416Z,7.10
2019-03-27T20:49:30.821Z,7.90
2019-03-27T20:52:01.093Z,7.43
2019-03-27T20:54:31.389Z,7.97
2019-03-27T20:57:02.236Z,7.57
2019-03-27T20:59:32.571Z,7.47
2019-03-27T21:02:02.646Z,7.20
2019-03-27T21:04:33.881Z,8.30
2019-03-27T21:07:05.241Z,7.97
2019-03-27T21:09:37.078Z,9.63
2019-03-27T21:12:07.284Z,9.27
2019-03-27T21:14:38.229Z,8.83
2019-03-27T21:17:09.482Z,7.93
2019-03-27T21:19:39.502Z,7.50
2019-03-27T21:22:09.489Z,7.77
2019-03-27T21:30:44.634Z,7.30
2019-03-27T21:33:21.698Z,6.53
2019-03-27T21:36:01.528Z,7.37
2019-03-27T21:44:31.321Z,7.73
2019-03-27T21:47:01.357Z,8.13
2019-03-27T21:49:31.518Z,7.47
2019-03-27T21:52:01.754Z,9.37
2019-03-27T21:54:34.596Z,11.47
2019-03-27T21:57:06.581Z,10.93
2019-03-27T21:59:36.819Z,12.97
2019-03-27T22:02:08.729Z,14.77
2019-03-27T22:04:38.864Z,13.17
2019-03-27T22:07:09.034Z,13.67
